• Join FlightAware (Why Join?)
  • Login
  • US Flag 
08:00AM EDT


 

Airport Tracker/Info


-or-


 

Live Flight TrackerFlight Track Log ✈ UAL335 ✈ 25-Apr-2013 ✈ KTPA - KEWR

Flight Track Log - Related Links

Times and Time Zones

All times are in EDT time to prevent confusion due to time zone crossing. See the UAL335 flight status page for this flight to view local times or setup timezone preferences in your user account.

Time Position Orientation Groundspeed Altitude Reporting Facility
EDT Latitude Longitude Course Direction KTS MPH feet Rate Location/Type
06:36PM 28.0000 -82.5333 North 138 159 800  Level Tampa TRACON
06:37PM 28.0167 -82.5333 360° North 158 182 1,300 1,920 Climbing Tampa TRACON
06:39PM 28.3103 -82.5667 North  Level FlightAware Approximate
06:39PM 28.1578 -82.5372 359° North 237 273 6,200  Level Jacksonville Center
06:40PM 28.4267 -82.5710 355° North  Level FlightAware Approximate
06:40PM 28.2350 -82.5439 356° North 260 299 9,500  Level Jacksonville Center
06:41PM 28.5428 -82.5826 355° North  Level FlightAware Approximate
06:41PM 28.3164 -82.5531 354° North 280 322 11,400  Level Jacksonville Center
06:42PM 28.6593 -82.5833 North  Level FlightAware Approximate
06:42PM 28.4103 -82.5597 356° North 309 356 13,400  Level Jacksonville Center
06:43PM 28.5147 -82.5714 354° North 331 381 15,600 1,920 Climbing Jacksonville Center
06:44PM 28.6169 -82.5850 353° North 352 405 17,300 1,620 Climbing Jacksonville Center
06:45PM 28.7131 -82.5967 354° North 369 425 18,900 1,680 Climbing Jacksonville Center
06:46PM 28.8217 -82.6081 355° North 381 438 20,700 1,740 Climbing Jacksonville Center
06:47PM 28.9303 -82.6244 352° North 391 450 22,400 1,740 Climbing Jacksonville Center
06:48PM 29.0408 -82.6408 353° North 391 450 24,200 1,440 Climbing Jacksonville Center
06:49PM 29.1536 -82.6572 353° North 396 456 25,300 1,140 Climbing Jacksonville Center
06:50PM 29.2683 -82.6711 354° North 402 463 26,500 1,320 Climbing Jacksonville Center
06:51PM 29.3853 -82.6875 353° North 413 475 28,000 1,380 Climbing Jacksonville Center
06:52PM 29.5189 -82.6969 356° North 422 486 29,300 1,140 Climbing Jacksonville Center
06:53PM 29.6400 -82.6942 North 431 496 30,300 960 Climbing Jacksonville Center
06:54PM 29.7589 -82.6917 North 431 496 31,300 1,020 Climbing Jacksonville Center
06:55PM 29.8822 -82.6939 359° North 436 502 32,400 840 Climbing Jacksonville Center
06:56PM 29.9992 -82.6936 360° North 423 487 33,000 240 Climbing Jacksonville Center
06:57PM 30.1181 -82.6883 North 423 487 32,900 -60 Descending Jacksonville Center
06:58PM 30.2372 -82.6858 North 423 487 32,900  Level Jacksonville Center
06:59PM 30.3561 -82.6856 360° North 423 487 32,900  Level Jacksonville Center
07:00PM 30.4750 -82.6781 North 423 487 33,000  Climbing Jacksonville Center
07:01PM 30.5942 -82.6464 13° North 425 489 33,000 -60 Level Jacksonville Center
07:02PM 30.7131 -82.5906 22° Northeast 431 496 32,900  Descending Jacksonville Center
07:03PM 30.8297 -82.5319 23° Northeast 448 516 33,000  Climbing Jacksonville Center
07:04PM 30.9486 -82.4736 23° Northeast 453 521 33,000 -60 Level Jacksonville Center
07:05PM 31.0425 -82.4269 23° Northeast 453 521 32,900  Descending Jacksonville Center
07:06PM 31.1675 -82.3656 23° Northeast 453 521 33,000  Climbing Jacksonville Center
07:07PM 31.2861 -82.3092 22° Northeast 453 521 33,000 -60 Level Jacksonville Center
07:08PM 31.4028 -82.2547 22° Northeast 453 521 32,900  Descending Jacksonville Center
07:09PM 31.5217 -82.1931 24° Northeast 458 527 33,000  Climbing Jacksonville Center
07:10PM 31.6506 -82.1286 23° Northeast 453 521 33,000  Level Jacksonville Center
07:11PM 31.7672 -82.0714 23° Northeast 453 521 33,000  Level Jacksonville Center
07:12PM 31.8753 -82.0192 22° Northeast 460 529 33,000  Level Jacksonville Center
07:13PM 32.0064 -81.9542 23° Northeast 460 529 33,000  Level Jacksonville Center
07:14PM 32.1231 -81.8992 22° Northeast 461 531 33,000  Level Jacksonville Center
07:15PM 32.2311 -81.8489 21° North 454 522 33,000  Level Jacksonville Center
07:16PM 32.3622 -81.7858 22° Northeast 454 522 33,000  Level Jacksonville Center
07:17PM 32.4806 -81.7278 22° Northeast 454 522 33,000  Level Jacksonville Center
07:18PM 32.5822 -81.6597 29° Northeast 449 517 33,000  Level Jacksonville Center
07:19PM 32.6797 -81.5844 33° Northeast 461 531 33,000  Level Jacksonville Center
07:20PM 32.8017 -81.4889 33° Northeast 472 543 33,000 -60 Level Jacksonville Center
07:21PM 32.9136 -81.4056 32° Northeast 472 543 32,900 -60 Descending Jacksonville Center
07:22PM 33.0231 -81.3194 33° Northeast 477 549 32,900  Level Jacksonville Center
07:23PM 33.1367 -81.2331 32° Northeast 477 549 32,900  Level Jacksonville Center
07:24PM 33.2503 -81.1439 33° Northeast 477 549 32,900  Level Jacksonville Center
07:25PM 33.3619 -81.0547 34° Northeast 477 549 32,900  Level Jacksonville Center
07:26PM 33.4711 -80.9678 34° Northeast 477 549 32,900  Level Jacksonville Center
07:27PM 33.5867 -80.8781 33° Northeast 477 549 33,000  Climbing Jacksonville Center
07:28PM 33.6978 -80.7906 33° Northeast 477 549 33,000 -60 Level Jacksonville Center
07:29PM 33.8092 -80.7031 33° Northeast 477 549 32,900 -60 Descending Jacksonville Center
07:30PM 33.9161 -80.6153 34° Northeast 477 549 32,900  Level Jacksonville Center
07:32PM 34.1469 -80.4297 34° Northeast 460 529 33,000  Climbing Washington Center
07:33PM 34.2503 -80.3478 33° Northeast 453 521 33,000  Level Washington Center
07:34PM 34.3603 -80.2561 35° Northeast 464 534 33,000  Level Washington Center
07:35PM 34.4636 -80.1736 33° Northeast 453 521 33,000  Level Washington Center
07:36PM 34.5736 -80.0842 34° Northeast 460 529 33,000  Level Washington Center
07:37PM 34.6942 -79.9847 34° Northeast 465 535 33,000  Level Washington Center
07:38PM 34.8014 -79.8994 33° Northeast 460 529 33,000  Level Washington Center
07:39PM 34.9047 -79.8136 34° Northeast 455 524 33,000  Level Washington Center
07:40PM 35.0100 -79.7281 34° Northeast 455 524 33,000  Level Washington Center
07:41PM 35.1150 -79.6444 33° Northeast 455 524 33,000  Level Washington Center
07:42PM 35.2222 -79.5583 33° Northeast 455 524 33,000  Level Washington Center
07:43PM 35.3356 -79.4772 30° Northeast 455 524 33,000  Level Washington Center
07:44PM 35.4508 -79.3964 30° Northeast 462 532 33,000  Level Washington Center
07:45PM 35.5642 -79.3122 31° Northeast 467 537 33,000  Level Washington Center
07:46PM 35.6772 -79.2306 30° Northeast 472 543 33,000  Level Washington Center
07:47PM 35.7881 -79.1486 31° Northeast 472 543 33,000  Level Washington Center
07:48PM 35.9033 -79.0614 31° Northeast 472 543 33,000  Level Washington Center
07:49PM 36.0186 -78.9767 31° Northeast 477 549 33,000  Level Washington Center
07:50PM 36.1336 -78.8942 30° Northeast 477 549 33,000  Level Washington Center
07:51PM 36.2506 -78.8064 31° Northeast 482 555 33,000  Level Washington Center
07:52PM 36.3656 -78.7208 31° Northeast 482 555 33,000  Level Washington Center
07:53PM 36.4825 -78.6325 31° Northeast 482 555 33,000  Level Washington Center
07:54PM 36.5761 -78.5611 31° Northeast 482 555 33,000  Level Washington Center
07:55PM 36.7122 -78.4575 31° Northeast 477 549 33,000  Level Washington Center
07:56PM 36.8292 -78.3683 31° Northeast 482 555 33,000  Level Washington Center
07:57PM 36.9436 -78.2817 31° Northeast 482 555 33,000  Level Washington Center
07:58PM 37.0500 -78.1969 32° Northeast 489 563 33,000  Level Washington Center
07:59PM 37.1772 -78.1019 31° Northeast 489 563 33,000  Level Washington Center
08:00PM 37.2936 -78.0119 32° Northeast 489 563 33,000  Level Washington Center
08:01PM 37.4081 -77.9214 32° Northeast 489 563 33,000  Level Washington Center
08:02PM 37.5267 -77.8308 31° Northeast 489 563 33,000  Level Washington Center
08:03PM 37.6392 -77.7317 35° Northeast 489 563 33,000  Level Washington Center
08:04PM 37.7514 -77.6272 36° Northeast 495 570 33,000  Level Washington Center
08:05PM 37.8614 -77.5278 36° Northeast 495 570 33,000  Level Washington Center
08:06PM 37.9736 -77.4253 36° Northeast 495 570 33,000 -180 Level Washington Center
08:07PM 38.0731 -77.3353 35° Northeast 495 570 32,700 -660 Descending Washington Center
08:08PM 38.1767 -77.2372 37° Northeast 484 557 31,700 -960 Descending Washington Center
08:09PM 38.2947 -77.1314 35° Northeast 471 542 30,800 -900 Descending Washington Center
08:10PM 38.3814 -77.0483 37° Northeast 451 519 29,900 -960 Descending Washington Center
08:11PM 38.4761 -76.9575 37° Northeast 436 502 28,900 -960 Descending Washington Center
08:12PM 38.5731 -76.8717 35° Northeast 431 496 28,000 -960 Descending Washington Center
08:13PM 38.6761 -76.7725 37° Northeast 441 507 27,000 -540 Descending Washington Center
08:14PM 38.7753 -76.6647 40° Northeast 448 516 27,000  Level Washington Center
08:15PM 38.8700 -76.5542 42° Northeast 453 521 27,000  Level Washington Center
08:16PM 38.9667 -76.4433 42° Northeast 463 533 27,000  Level Washington Center
08:17PM 39.0633 -76.3322 42° Northeast 463 533 27,000  Level Washington Center
08:18PM 39.1597 -76.2153 43° Northeast 463 533 27,000  Level Washington Center
08:19PM 39.2603 -76.1036 41° Northeast 468 539 27,000 -720 Level Washington Center
08:20PM 39.3567 -75.9942 41° Northeast 468 539 25,600 -1,560 Descending Washington Center
08:21PM 39.4550 -75.8792 42° Northeast 468 539 23,900 -1,680 Descending Washington Center
08:22PM 39.5447 -75.7692 43° Northeast 456 525 22,300 -1,560 Descending Washington Center
08:23PM 39.6344 -75.6617 43° Northeast 445 512 20,800 -1,560 Descending Washington Center
08:24PM 39.7219 -75.5592 42° Northeast 430 495 19,200 -1,500 Descending Washington Center
08:25PM 39.8072 -75.4564 43° Northeast 418 481 17,800 -1,560 Descending Washington Center
08:26PM 39.8864 -75.3589 43° Northeast 406 467 16,100 -1,740 Descending Washington Center
08:27PM 39.9653 -75.2639 43° Northeast 393 452 14,400 -1,620 Descending Washington Center
08:28PM 40.0400 -75.1742 43° Northeast 381 438 12,900 -1,500 Descending Washington Center
08:30PM 40.1667 -75.0167 44° Northeast 310 357 10,300 -1,320 Descending New York TRACON
08:31PM 40.2167 -74.9500 46° Northeast 300 345 9,300 -1,140 Descending New York TRACON
08:32PM 40.2833 -74.8667 44° Northeast 295 339 8,100 -660 Descending New York TRACON
08:33PM 40.3333 -74.8000 45° Northeast 294 338 8,000 -900 Descending New York TRACON
08:34PM 40.3833 -74.7167 52° Northeast 288 331 6,500 -1,020 Descending New York TRACON
08:35PM 40.4500 -74.6667 30° Northeast 259 298 6,000 -300 Descending New York TRACON
08:36PM 40.5167 -74.6500 11° North 231 266 6,000  Level New York TRACON
08:37PM 40.5667 -74.6333 14° North 234 269 6,000  Level New York TRACON
08:38PM 40.6500 -74.6167 North 232 267 6,000  Level New York TRACON
08:39PM 40.7000 -74.6000 14° North 232 267 6,000  Level New York TRACON
08:40PM 40.7667 -74.5833 11° North 230 265 6,000  Level New York TRACON
08:41PM 40.8333 -74.5667 11° North 230 265 6,000  Level New York TRACON
08:42PM 40.8833 -74.5333 27° Northeast 230 265 6,000  Level New York TRACON
08:43PM 40.9500 -74.5000 21° North 228 262 6,000 -480 Level New York TRACON
08:44PM 41.0000 -74.4667 27° Northeast 235 270 5,100 -540 Descending New York TRACON
08:45PM 41.0500 -74.4000 45° Northeast 233 268 5,000 -60 Descending New York TRACON
08:46PM 41.0333 -74.3167 105° East 230 265 5,000 -480 Level New York TRACON
08:47PM 41.0167 -74.2333 105° East 225 259 4,100 -540 Descending New York TRACON
08:48PM 40.9833 -74.1667 124° Southeast 223 257 4,000 -120 Descending New York TRACON
08:49PM 40.9333 -74.1333 153° Southeast 202 232 3,900 -420 Descending New York TRACON
08:50PM 40.8833 -74.1000 153° Southeast 200 230 3,200 -540 Descending New York TRACON
08:51PM 40.8333 -74.0833 166° South 193 222 2,900 -600 Descending New York TRACON
08:52PM 40.7833 -74.1000 194° South 176 203 2,100 -900 Descending New York TRACON
08:53PM 40.7500 -74.1333 217° Southwest 150 173 1,200 -840 Descending New York TRACON
08:54PM 40.7167 -74.1500 201° Southwest 137 158 500 -720 Descending New York TRACON